createdAt,value
2024-03-12T00:00:03.437Z,37.90
2024-03-12T00:05:09.224Z,31.80
2024-03-12T00:10:16.896Z,31.15
2024-03-12T00:15:26.713Z,37.95
2024-03-12T00:20:34.819Z,46.72
2024-03-12T00:25:38.530Z,37.35
2024-03-12T00:30:45.116Z,38.37
2024-03-12T00:35:47.869Z,27.75
2024-03-12T00:40:51.881Z,37.38
2024-03-12T00:45:54.570Z,40.53
2024-03-12T00:50:58.357Z,44.22
2024-03-12T00:56:02.636Z,35.97
2024-03-12T01:06:16.454Z,37.08
2024-03-12T01:11:19.842Z,38.40
2024-03-12T01:16:22.940Z,42.10
2024-03-12T01:21:25.631Z,36.03
2024-03-12T01:26:28.295Z,33.72
2024-03-12T01:31:32.447Z,43.28
2024-03-12T01:36:37.910Z,44.70
2024-03-12T01:41:43.046Z,42.22
2024-03-12T01:46:47.198Z,42.35
2024-03-12T01:51:53.193Z,40.75
2024-03-12T01:56:55.823Z,39.00
2024-03-12T02:02:19.407Z,39.95
2024-03-12T02:07:22.024Z,37.72
2024-03-12T02:12:25.546Z,41.65
2024-03-12T02:17:28.251Z,45.88
2024-03-12T02:22:32.828Z,39.75
2024-03-12T02:32:39.813Z,42.85
2024-03-12T02:37:46.201Z,32.05
2024-03-12T02:42:50.442Z,37.35
2024-03-12T02:47:53.480Z,35.15
2024-03-12T02:52:56.793Z,35.53
2024-03-12T02:57:59.584Z,39.55
2024-03-12T03:03:04.568Z,45.40
2024-03-12T03:08:09.694Z,36.85
2024-03-12T03:13:12.722Z,38.58
2024-03-12T03:18:15.764Z,44.47
2024-03-12T03:23:18.500Z,39.63
2024-03-12T03:28:21.137Z,39.47
2024-03-12T03:33:24.095Z,31.30
2024-03-12T03:38:28.967Z,40.70
2024-03-12T03:43:31.656Z,30.85
2024-03-12T03:48:36.158Z,39.97
2024-03-12T03:53:39.778Z,32.97
2024-03-12T03:58:44.650Z,30.73
2024-03-12T04:03:47.498Z,33.17
2024-03-12T04:08:56.309Z,30.13
2024-03-12T04:13:59.444Z,31.65
2024-03-12T04:19:02.285Z,30.92
2024-03-12T04:24:05.439Z,31.10
2024-03-12T04:29:08.935Z,29.92
2024-03-12T04:34:11.734Z,29.27
2024-03-12T04:39:32.260Z,29.48
2024-03-12T04:44:38.050Z,27.50
2024-03-12T04:49:43.662Z,28.35
2024-03-12T04:54:47.261Z,29.27
2024-03-12T04:59:50.154Z,27.90
2024-03-12T05:04:53.173Z,27.10
2024-03-12T05:09:56.524Z,26.55
2024-03-12T05:15:00.694Z,27.88
2024-03-12T05:20:07.384Z,27.08
2024-03-12T05:25:12.116Z,28.88
2024-03-12T05:30:17.815Z,28.45
2024-03-12T05:35:23.862Z,31.67
2024-03-12T05:40:45.077Z,22.17
2024-03-12T05:46:06.936Z,27.98
2024-03-12T05:51:12.173Z,28.30
2024-03-12T05:56:18.786Z,29.38
2024-03-12T06:01:25.530Z,25.77
2024-03-12T06:06:28.716Z,26.48
2024-03-12T06:11:32.945Z,31.00
2024-03-12T06:17:00.212Z,24.88
2024-03-12T06:22:04.349Z,24.48
2024-03-12T06:27:08.848Z,20.92
2024-03-12T06:32:11.926Z,23.23
2024-03-12T06:37:14.953Z,29.02
2024-03-12T06:42:20.479Z,23.67
2024-03-12T06:47:26.716Z,24.42
2024-03-12T06:52:29.347Z,25.42
2024-03-12T06:57:36.436Z,23.98
2024-03-12T07:02:39.622Z,24.73
2024-03-12T07:07:47.356Z,19.60
2024-03-12T07:12:50.099Z,21.25
2024-03-12T07:17:53.887Z,21.17
2024-03-12T07:23:00.214Z,19.63
2024-03-12T07:28:07.835Z,25.15
2024-03-12T07:33:12.927Z,22.77
2024-03-12T07:38:15.949Z,21.80
2024-03-12T07:43:20.048Z,22.98
2024-03-12T07:48:24.902Z,24.23
2024-03-12T07:53:31.971Z,22.45
2024-03-12T07:58:36.531Z,24.70
2024-03-12T08:03:43.312Z,22.45
2024-03-12T08:08:46.525Z,23.83
2024-03-12T08:13:49.423Z,21.00
2024-03-12T08:18:52.480Z,20.75
2024-03-12T08:24:01.367Z,20.05
2024-03-12T08:29:05.838Z,21.83
2024-03-12T08:39:13.568Z,17.15
2024-03-12T08:49:34.736Z,22.80
2024-03-12T08:54:37.812Z,21.27
2024-03-12T08:59:41.391Z,20.33
2024-03-12T09:04:45.672Z,22.45
2024-03-12T09:09:51.853Z,20.10
2024-03-12T09:14:56.827Z,18.55
2024-03-12T09:20:18.732Z,20.42
2024-03-12T09:25:21.527Z,16.52
2024-03-12T09:30:28.377Z,17.88
2024-03-12T09:35:31.567Z,16.77
2024-03-12T09:40:34.297Z,16.80
2024-03-12T09:45:40.531Z,17.63
2024-03-12T09:50:43.963Z,13.82
2024-03-12T09:55:47.424Z,17.47
2024-03-12T10:00:50.203Z,18.02
2024-03-12T10:05:54.903Z,16.35
2024-03-12T10:10:58.214Z,14.75
2024-03-12T10:16:02.645Z,17.98
2024-03-12T10:26:22.396Z,18.08
2024-03-12T10:31:30.458Z,17.45
2024-03-12T10:36:34.825Z,18.80
2024-03-12T10:41:44.613Z,22.05
2024-03-12T10:46:48.222Z,22.27
2024-03-12T10:51:51.451Z,20.40
2024-03-12T10:56:54.984Z,18.88
2024-03-12T11:02:00.061Z,19.08
2024-03-12T11:07:07.073Z,22.52
2024-03-12T11:12:17.467Z,22.33
2024-03-12T11:17:30.835Z,23.20
2024-03-12T11:22:37.253Z,20.30
2024-03-12T11:27:40.072Z,27.70
2024-03-12T11:32:44.175Z,23.42
2024-03-12T11:38:02.872Z,21.35
2024-03-12T11:43:07.967Z,22.25
2024-03-12T11:48:11.944Z,23.38
2024-03-12T11:53:19.858Z,27.08
2024-03-12T11:58:39.577Z,21.95
2024-03-12T12:03:46.205Z,20.65
2024-03-12T12:08:53.757Z,19.73
2024-03-12T12:14:05.351Z,22.57
2024-03-12T12:19:18.504Z,23.48
2024-03-12T12:24:29.809Z,26.80
2024-03-12T12:29:54.828Z,23.02
2024-03-12T12:34:58.768Z,21.48
2024-03-12T12:40:01.806Z,23.60
2024-03-12T12:45:06.550Z,25.25
2024-03-12T12:55:17.067Z,22.38
2024-03-12T13:00:22.423Z,22.85
2024-03-12T13:05:25.952Z,24.30
2024-03-12T13:10:28.753Z,25.17
2024-03-12T13:15:35.584Z,24.58
2024-03-12T13:20:45.634Z,24.05
2024-03-12T13:25:48.450Z,24.13
2024-03-12T13:30:54.842Z,24.52
2024-03-12T13:36:00.350Z,22.70
2024-03-12T13:41:03.446Z,24.83
2024-03-12T13:46:09.788Z,24.98
2024-03-12T13:51:15.070Z,21.35
2024-03-12T13:56:17.901Z,27.45
2024-03-12T14:01:20.766Z,27.77
2024-03-12T14:06:23.626Z,27.25
2024-03-12T14:11:26.872Z,27.45
2024-03-12T14:16:31.238Z,27.47
2024-03-12T14:21:34.643Z,29.67
2024-03-12T14:26:37.498Z,27.33
2024-03-12T14:31:42.800Z,29.42
2024-03-12T14:36:47.080Z,30.13
2024-03-12T14:46:54.705Z,28.92
2024-03-12T14:51:58.279Z,27.30
2024-03-12T14:57:01.136Z,29.70
2024-03-12T15:02:06.190Z,27.67
2024-03-12T15:07:12.193Z,27.58
2024-03-12T15:12:21.145Z,30.38
2024-03-12T15:17:46.171Z,29.25
2024-03-12T15:22:51.334Z,30.20
2024-03-12T15:27:54.504Z,32.35
2024-03-12T15:38:06.971Z,27.48
2024-03-12T15:43:11.171Z,30.08
2024-03-12T15:48:14.987Z,33.47
2024-03-12T15:53:17.883Z,29.55
2024-03-12T15:58:22.959Z,32.15
2024-03-12T16:03:26.024Z,30.55
2024-03-12T16:08:30.689Z,30.30
2024-03-12T16:13:33.438Z,32.30
2024-03-12T16:18:36.307Z,29.65
2024-03-12T16:23:40.420Z,32.47
2024-03-12T16:28:43.193Z,30.55
2024-03-12T16:33:45.815Z,33.90
2024-03-12T16:38:48.756Z,31.75
2024-03-12T16:43:52.694Z,32.63
2024-03-12T16:48:55.627Z,28.17
2024-03-12T16:54:17.325Z,30.92
2024-03-12T16:59:21.726Z,33.17
2024-03-12T17:09:28.864Z,30.63
2024-03-12T17:14:38.371Z,26.13
2024-03-12T17:19:41.560Z,22.33
2024-03-12T17:24:44.912Z,22.00
2024-03-12T17:29:48.955Z,21.70
2024-03-12T17:34:52.215Z,19.35
2024-03-12T17:39:56.945Z,21.90
2024-03-12T17:44:59.963Z,22.80
2024-03-12T17:50:04.139Z,20.30
2024-03-12T17:55:09.447Z,22.75
2024-03-12T18:00:18.750Z,23.88
2024-03-12T18:05:23.131Z,26.77
2024-03-12T18:15:29.423Z,29.23
2024-03-12T18:20:34.657Z,28.50
2024-03-12T18:25:38.322Z,27.20
2024-03-12T18:30:41.907Z,31.23
2024-03-12T18:35:49.272Z,29.00
2024-03-12T18:40:53.125Z,25.60
2024-03-12T18:45:56.133Z,30.55
2024-03-12T18:50:59.828Z,25.88
2024-03-12T18:56:03.996Z,23.95
2024-03-12T19:01:26.944Z,27.10
2024-03-12T19:06:30.553Z,27.15
2024-03-12T19:11:33.549Z,24.73
2024-03-12T19:16:37.255Z,23.80
2024-03-12T19:21:41.774Z,25.00
2024-03-12T19:26:44.512Z,24.27
2024-03-12T19:32:07.472Z,25.95
2024-03-12T19:42:14.170Z,23.80
2024-03-12T19:47:17.262Z,22.55
2024-03-12T19:52:20.515Z,22.15
2024-03-12T19:57:24.310Z,17.65
2024-03-12T20:02:28.644Z,18.40
2024-03-12T20:07:33.294Z,16.52
2024-03-12T20:12:38.050Z,17.83
2024-03-12T20:17:46.456Z,19.05
2024-03-12T20:22:52.505Z,15.90
2024-03-12T20:27:56.491Z,19.17
2024-03-12T20:33:03.511Z,17.92
2024-03-12T20:38:10.471Z,16.88
2024-03-12T20:43:15.060Z,19.20
2024-03-12T20:48:18.662Z,17.70
2024-03-12T20:53:21.929Z,16.63
2024-03-12T20:58:25.129Z,19.50
2024-03-12T21:03:32.830Z,18.80
2024-03-12T21:08:35.633Z,18.13
2024-03-12T21:13:39.478Z,18.90
2024-03-12T21:18:43.481Z,15.57
2024-03-12T21:23:47.054Z,18.70
2024-03-12T21:28:49.727Z,17.97
2024-03-12T21:33:53.288Z,16.58
2024-03-12T21:38:56.153Z,18.83
2024-03-12T21:43:59.232Z,19.25
2024-03-12T21:49:02.801Z,18.05
2024-03-12T21:54:05.892Z,18.45
2024-03-12T21:59:09.881Z,17.25
2024-03-12T22:04:12.967Z,18.77
2024-03-12T22:09:17.662Z,19.45
2024-03-12T22:14:20.515Z,20.48
2024-03-12T22:19:24.182Z,18.52
2024-03-12T22:24:27.243Z,19.80
2024-03-12T22:29:33.989Z,19.65
2024-03-12T22:34:38.230Z,17.52
2024-03-12T22:39:41.498Z,16.20
2024-03-12T22:44:44.961Z,18.30
2024-03-12T22:49:49.017Z,19.10
2024-03-12T22:54:57.963Z,17.10
2024-03-12T23:00:00.810Z,18.27
2024-03-12T23:05:09.361Z,18.02
2024-03-12T23:10:13.446Z,19.00
2024-03-12T23:15:21.331Z,20.05
2024-03-12T23:20:25.563Z,19.70
2024-03-12T23:25:28.567Z,18.42
2024-03-12T23:30:35.607Z,16.52
2024-03-12T23:35:38.343Z,18.95
2024-03-12T23:40:42.665Z,18.85
2024-03-12T23:45:45.993Z,16.17
2024-03-12T23:50:50.988Z,18.52
2024-03-12T23:55:55.032Z,14.82
